PWSweather.com
Personal Weather Stations
Station Observations
THRCKWTHR1
Aveley, EssexGB RM154EL

AveleyEssexGB RM154EL

Lat: 51.5000552, Lon: 0.2501753000000235

Elevation: 98.5

Station Type: Oregon Scientific WMR88

www.facebook.com/thurrockweather

High Low Average
Temperature 52.5°F11.4°C 39.6°F4.2°C 47.3°F8.5°C
Dew Point 48.8°F9.3°C 36.3°F2.4°C 42.6°F5.9°C
Winds 15.3 mph 24.6 kmh Calm Calm 4.0 mph WNW6.4 kmh WNW
Wind Gusts 18.0 mph29.0 kmh 2.5 mph4.0 kmh 7.0 mph11.3 kmh
Humidity 94% 74% 84%
Pressure 30.01 in1016.3 mb 29.80 in1009.1 mb -
Precipitation 0.08 in2.0 mm - -
Hour Temp Dew Point Humidity Winds Wind Gusts Pressure Precip Precip Rate Daily Precip Total
12:00 AM 50.5°F10.3°C 42.9°F6.1°C 75% 5.2 mph W8.4 kmh W 6.8 mph10.9 kmh 30.01 in1016.3 mb 0.00 in0.0 mm 0.00 in0.0 mm 0.00 in0.0 mm
12:05 AM 50.5°F10.3°C 42.9°F6.1°C 75% 3.0 mph WSW4.8 kmh WSW 6.8 mph10.9 kmh 30.01 in1016.3 mb 0.00 in0.0 mm 0.00 in0.0 mm 0.00 in0.0 mm
12:10 AM 50.5°F10.3°C 42.9°F6.1°C 75% 3.8 mph W6.1 kmh W 5.2 mph8.4 kmh 30.01 in1016.3 mb 0.00 in0.0 mm 0.00 in0.0 mm 0.00 in0.0 mm
12:15 AM 50.5°F10.3°C 42.9°F6.1°C 75% 1.6 mph WNW2.6 kmh WNW 3.8 mph6.1 kmh 30.01 in1016.3 mb 0.00 in0.0 mm 0.00 in0.0 mm 0.00 in0.0 mm
12:20 AM 50.5°F10.3°C 42.9°F6.1°C 75% 2.7 mph NW4.3 kmh NW 3.8 mph6.1 kmh 30.01 in1016.3 mb 0.00 in0.0 mm 0.00 in0.0 mm 0.00 in0.0 mm
12:25 AM 50.5°F10.3°C 42.9°F6.1°C 75% 2.5 mph WNW4.0 kmh WNW 3.8 mph6.1 kmh 30.01 in1016.3 mb 0.00 in0.0 mm 0.00 in0.0 mm 0.00 in0.0 mm
12:30 AM 50.5°F10.3°C 42.9°F6.1°C 75% 1.4 mph WNW2.3 kmh WNW 3.0 mph4.8 kmh 29.98 in1015.2 mb 0.00 in0.0 mm 0.00 in0.0 mm 0.00 in0.0 mm
12:35 AM 50.5°F10.3°C 42.9°F6.1°C 75% 4.1 mph NW6.6 kmh NW 5.7 mph9.2 kmh 29.98 in1015.2 mb 0.00 in0.0 mm 0.00 in0.0 mm 0.00 in0.0 mm
12:40 AM 50.5°F10.3°C 42.9°F6.1°C 75% 1.6 mph NW2.6 kmh NW 5.7 mph9.2 kmh 29.98 in1015.2 mb 0.00 in0.0 mm 0.00 in0.0 mm 0.00 in0.0 mm
12:45 AM 50.5°F10.3°C 42.9°F6.1°C 75% 2.5 mph NW4.0 kmh NW 5.2 mph8.4 kmh 29.98 in1015.2 mb 0.00 in0.0 mm 0.00 in0.0 mm 0.00 in0.0 mm
12:50 AM 50.5°F10.3°C 42.9°F6.1°C 75% 1.6 mph NW2.6 kmh NW 5.2 mph8.4 kmh 29.98 in1015.2 mb 0.00 in0.0 mm 0.00 in0.0 mm 0.00 in0.0 mm
12:55 AM 50.5°F10.3°C 42.9°F6.1°C 75% 4.9 mph WSW7.9 kmh WSW 4.9 mph7.9 kmh 29.98 in1015.2 mb 0.00 in0.0 mm 0.00 in0.0 mm 0.00 in0.0 mm
01:00 AM 50.5°F10.3°C 42.9°F6.1°C 75% 3.8 mph WSW6.1 kmh WSW 4.9 mph7.9 kmh 29.98 in1015.2 mb 0.00 in0.0 mm 0.00 in0.0 mm 0.00 in0.0 mm
01:05 AM 50.5°F10.3°C 42.9°F6.1°C 75% 1.9 mph WSW3.1 kmh WSW 5.7 mph9.2 kmh 29.98 in1015.2 mb 0.00 in0.0 mm 0.00 in0.0 mm 0.00 in0.0 mm
01:10 AM 50.5°F10.3°C 42.9°F6.1°C 75% 2.7 mph SW4.3 kmh SW 5.7 mph9.2 kmh 29.98 in1015.2 mb 0.00 in0.0 mm 0.00 in0.0 mm 0.00 in0.0 mm
01:15 AM 50.5°F10.3°C 42.9°F6.1°C 75% 3.0 mph NNW4.8 kmh NNW 5.2 mph8.4 kmh 29.95 in1014.2 mb 0.00 in0.0 mm 0.00 in0.0 mm 0.00 in0.0 mm
01:20 AM 50.5°F10.3°C 42.9°F6.1°C 75% 4.4 mph W7.1 kmh W 6.5 mph10.5 kmh 29.95 in1014.2 mb 0.00 in0.0 mm 0.00 in0.0 mm 0.00 in0.0 mm
01:25 AM 50.5°F10.3°C 42.9°F6.1°C 75% 4.4 mph SW7.1 kmh SW 6.5 mph10.5 kmh 29.95 in1014.2 mb 0.00 in0.0 mm 0.00 in0.0 mm 0.00 in0.0 mm
01:30 AM 50.4°F10.2°C 42.7°F5.9°C 75% 1.6 mph SW2.6 kmh SW 4.6 mph7.4 kmh 29.95 in1014.2 mb 0.00 in0.0 mm 0.00 in0.0 mm 0.00 in0.0 mm
01:35 AM 50.4°F10.2°C 42.7°F5.9°C 75% 3.0 mph W4.8 kmh W 4.6 mph7.4 kmh 29.95 in1014.2 mb 0.00 in0.0 mm 0.00 in0.0 mm 0.00 in0.0 mm
01:40 AM 50.4°F10.2°C 42.7°F5.9°C 75% 1.9 mph NW3.1 kmh NW 5.7 mph9.2 kmh 29.95 in1014.2 mb 0.00 in0.0 mm 0.00 in0.0 mm 0.00 in0.0 mm
01:45 AM 50.4°F10.2°C 42.7°F5.9°C 75% 1.1 mph NW1.8 kmh NW 5.7 mph9.2 kmh 29.95 in1014.2 mb 0.00 in0.0 mm 0.00 in0.0 mm 0.00 in0.0 mm
01:50 AM 50.4°F10.2°C 42.7°F5.9°C 75% 3.5 mph NW5.6 kmh NW 4.9 mph7.9 kmh 29.95 in1014.2 mb 0.00 in0.0 mm 0.00 in0.0 mm 0.00 in0.0 mm
01:55 AM 50.2°F10.1°C 42.2°F5.7°C 74% 1.6 mph NW2.6 kmh NW 5.2 mph8.4 kmh 29.95 in1014.2 mb 0.00 in0.0 mm 0.00 in0.0 mm 0.00 in0.0 mm
02:00 AM 50.2°F10.1°C 42.6°F5.9°C 75% 1.4 mph NW2.3 kmh NW 5.2 mph8.4 kmh 29.95 in1014.2 mb 0.00 in0.0 mm 0.00 in0.0 mm 0.00 in0.0 mm
02:05 AM 50.0°F10.0°C 42.0°F5.6°C 74% 1.1 mph WNW1.8 kmh WNW 3.3 mph5.3 kmh 29.95 in1014.2 mb 0.00 in0.0 mm 0.00 in0.0 mm 0.00 in0.0 mm
02:10 AM 49.8°F9.9°C 42.2°F5.7°C 75% 2.5 mph SW4.0 kmh SW 2.5 mph4.0 kmh 29.95 in1014.2 mb 0.00 in0.0 mm 0.00 in0.0 mm 0.00 in0.0 mm
02:15 AM 49.6°F9.8°C 42.0°F5.6°C 75% 1.9 mph WNW3.1 kmh WNW 5.2 mph8.4 kmh 29.95 in1014.2 mb 0.00 in0.0 mm 0.00 in0.0 mm 0.00 in0.0 mm
02:20 AM 49.6°F9.8°C 42.0°F5.6°C 75% Calm Calm 5.2 mph8.4 kmh 29.95 in1014.2 mb 0.00 in0.0 mm 0.00 in0.0 mm 0.00 in0.0 mm
02:25 AM 49.6°F9.8°C 42.0°F5.6°C 75% 1.6 mph WNW2.6 kmh WNW 3.5 mph5.6 kmh 29.95 in1014.2 mb 0.00 in0.0 mm 0.00 in0.0 mm 0.00 in0.0 mm
02:30 AM 49.6°F9.8°C 42.0°F5.6°C 75% 2.5 mph WNW4.0 kmh WNW 3.5 mph5.6 kmh 29.95 in1014.2 mb 0.00 in0.0 mm 0.00 in0.0 mm 0.00 in0.0 mm
02:35 AM 49.5°F9.7°C 42.2°F5.7°C 76% 4.4 mph SW7.1 kmh SW 4.4 mph7.1 kmh 29.95 in1014.2 mb 0.00 in0.0 mm 0.00 in0.0 mm 0.00 in0.0 mm
02:40 AM 49.5°F9.7°C 42.2°F5.7°C 76% 1.6 mph SW2.6 kmh SW 4.4 mph7.1 kmh 29.95 in1014.2 mb 0.00 in0.0 mm 0.00 in0.0 mm 0.00 in0.0 mm
02:45 AM 49.5°F9.7°C 42.2°F5.7°C 76% 1.9 mph WSW3.1 kmh WSW 3.5 mph5.6 kmh 29.92 in1013.2 mb 0.00 in0.0 mm 0.00 in0.0 mm 0.00 in0.0 mm
02:50 AM 49.5°F9.7°C 42.2°F5.7°C 76% 4.9 mph S7.9 kmh S 4.9 mph7.9 kmh 29.92 in1013.2 mb 0.00 in0.0 mm 0.00 in0.0 mm 0.00 in0.0 mm
02:55 AM 49.6°F9.8°C 42.4°F5.8°C 76% 1.6 mph S2.6 kmh S 4.9 mph7.9 kmh 29.92 in1013.2 mb 0.00 in0.0 mm 0.00 in0.0 mm 0.00 in0.0 mm
03:00 AM 49.6°F9.8°C 42.4°F5.8°C 76% 1.6 mph SW2.6 kmh SW 4.9 mph7.9 kmh 29.92 in1013.2 mb 0.00 in0.0 mm 0.00 in0.0 mm 0.00 in0.0 mm
03:05 AM 49.6°F9.8°C 42.4°F5.8°C 76% 1.6 mph SW2.6 kmh SW 4.4 mph7.1 kmh 29.92 in1013.2 mb 0.00 in0.0 mm 0.00 in0.0 mm 0.00 in0.0 mm
03:10 AM 49.6°F9.8°C 42.7°F5.9°C 77% 1.4 mph SSW2.3 kmh SSW 4.1 mph6.6 kmh 29.92 in1013.2 mb 0.00 in0.0 mm 0.00 in0.0 mm 0.00 in0.0 mm
03:15 AM 49.5°F9.7°C 42.5°F5.8°C 77% 5.5 mph SSW8.9 kmh SSW 5.5 mph8.9 kmh 29.92 in1013.2 mb 0.00 in0.0 mm 0.00 in0.0 mm 0.00 in0.0 mm
03:20 AM 49.5°F9.7°C 42.5°F5.8°C 77% 3.3 mph SSW5.3 kmh SSW 5.5 mph8.9 kmh 29.92 in1013.2 mb 0.00 in0.0 mm 0.00 in0.0 mm 0.00 in0.0 mm
03:25 AM 49.5°F9.7°C 42.5°F5.8°C 77% 2.5 mph S4.0 kmh S 5.5 mph8.9 kmh 29.92 in1013.2 mb 0.00 in0.0 mm 0.00 in0.0 mm 0.00 in0.0 mm
03:30 AM 49.6°F9.8°C 42.7°F5.9°C 77% 4.9 mph S7.9 kmh S 4.9 mph7.9 kmh 29.92 in1013.2 mb 0.00 in0.0 mm 0.00 in0.0 mm 0.00 in0.0 mm
03:35 AM 49.6°F9.8°C 42.7°F5.9°C 77% 3.3 mph S5.3 kmh S 4.9 mph7.9 kmh 29.92 in1013.2 mb 0.00 in0.0 mm 0.00 in0.0 mm 0.00 in0.0 mm
03:40 AM 49.6°F9.8°C 42.7°F5.9°C 77% 2.5 mph SSW4.0 kmh SSW 4.1 mph6.6 kmh 29.92 in1013.2 mb 0.00 in0.0 mm 0.00 in0.0 mm 0.00 in0.0 mm
03:45 AM 49.6°F9.8°C 42.7°F5.9°C 77% 4.1 mph SSW6.6 kmh SSW 4.1 mph6.6 kmh 29.92 in1013.2 mb 0.00 in0.0 mm 0.00 in0.0 mm 0.00 in0.0 mm
03:50 AM 49.6°F9.8°C 42.7°F5.9°C 77% 3.3 mph S5.3 kmh S 4.1 mph6.6 kmh 29.92 in1013.2 mb 0.00 in0.0 mm 0.00 in0.0 mm 0.00 in0.0 mm
03:55 AM 49.6°F9.8°C 42.7°F5.9°C 77% 3.0 mph S4.8 kmh S 4.1 mph6.6 kmh 29.89 in1012.2 mb 0.00 in0.0 mm 0.00 in0.0 mm 0.00 in0.0 mm
04:00 AM 49.6°F9.8°C 42.7°F5.9°C 77% 2.5 mph SSW4.0 kmh SSW 3.8 mph6.1 kmh 29.89 in1012.2 mb 0.00 in0.0 mm 0.00 in0.0 mm 0.00 in0.0 mm
04:05 AM 49.6°F9.8°C 42.7°F5.9°C 77% 4.9 mph SW7.9 kmh SW 4.9 mph7.9 kmh 29.89 in1012.2 mb 0.00 in0.0 mm 0.00 in0.0 mm 0.00 in0.0 mm
04:10 AM 49.6°F9.8°C 42.7°F5.9°C 77% 1.6 mph SW2.6 kmh SW 4.9 mph7.9 kmh 29.89 in1012.2 mb 0.00 in0.0 mm 0.00 in0.0 mm 0.00 in0.0 mm
04:15 AM 49.6°F9.8°C 42.7°F5.9°C 77% 3.0 mph SW4.8 kmh SW 4.9 mph7.9 kmh 29.89 in1012.2 mb 0.00 in0.0 mm 0.00 in0.0 mm 0.00 in0.0 mm
04:20 AM 49.6°F9.8°C 42.7°F5.9°C 77% 1.1 mph SW1.8 kmh SW 4.1 mph6.6 kmh 29.89 in1012.2 mb 0.00 in0.0 mm 0.00 in0.0 mm 0.00 in0.0 mm
04:25 AM 49.6°F9.8°C 42.7°F5.9°C 77% 1.6 mph SSW2.6 kmh SSW 4.1 mph6.6 kmh 29.89 in1012.2 mb 0.00 in0.0 mm 0.00 in0.0 mm 0.00 in0.0 mm
04:30 AM 49.6°F9.8°C 42.7°F5.9°C 77% 3.0 mph SSW4.8 kmh SSW 3.3 mph5.3 kmh 29.89 in1012.2 mb 0.00 in0.0 mm 0.00 in0.0 mm 0.00 in0.0 mm
04:35 AM 49.6°F9.8°C 42.7°F5.9°C 77% 3.8 mph SW6.1 kmh SW 3.8 mph6.1 kmh 29.89 in1012.2 mb 0.00 in0.0 mm 0.00 in0.0 mm 0.00 in0.0 mm
04:40 AM 49.6°F9.8°C 42.7°F5.9°C 77% 1.4 mph SW2.3 kmh SW 6.5 mph10.5 kmh 29.89 in1012.2 mb 0.00 in0.0 mm 0.00 in0.0 mm 0.00 in0.0 mm
04:45 AM 49.6°F9.8°C 42.7°F5.9°C 77% 2.7 mph SSW4.3 kmh SSW 6.5 mph10.5 kmh 29.89 in1012.2 mb 0.00 in0.0 mm 0.00 in0.0 mm 0.00 in0.0 mm
04:50 AM 49.5°F9.7°C 42.5°F5.8°C 77% 1.6 mph SW2.6 kmh SW 6.0 mph9.7 kmh 29.89 in1012.2 mb 0.00 in0.0 mm 0.00 in0.0 mm 0.00 in0.0 mm
04:55 AM 49.5°F9.7°C 42.5°F5.8°C 77% 2.5 mph WSW4.0 kmh WSW 6.0 mph9.7 kmh 29.89 in1012.2 mb 0.00 in0.0 mm 0.00 in0.0 mm 0.00 in0.0 mm
05:00 AM 49.5°F9.7°C 42.9°F6.1°C 78% 1.9 mph WSW3.1 kmh WSW 3.5 mph5.6 kmh 29.89 in1012.2 mb 0.00 in0.0 mm 0.00 in0.0 mm 0.00 in0.0 mm
05:05 AM 49.6°F9.8°C 43.1°F6.2°C 78% 3.5 mph WSW5.6 kmh WSW 4.6 mph7.4 kmh 29.89 in1012.2 mb 0.00 in0.0 mm 0.00 in0.0 mm 0.00 in0.0 mm
05:10 AM 49.5°F9.7°C 42.9°F6.1°C 78% 3.5 mph SW5.6 kmh SW 4.6 mph7.4 kmh 29.89 in1012.2 mb 0.00 in0.0 mm 0.00 in0.0 mm 0.00 in0.0 mm
05:15 AM 49.5°F9.7°C 42.9°F6.1°C 78% 1.6 mph SSW2.6 kmh SSW 6.8 mph10.9 kmh 29.89 in1012.2 mb 0.00 in0.0 mm 0.00 in0.0 mm 0.00 in0.0 mm
05:20 AM 49.5°F9.7°C 42.9°F6.1°C 78% 2.5 mph SSW4.0 kmh SSW 6.8 mph10.9 kmh 29.89 in1012.2 mb 0.00 in0.0 mm 0.00 in0.0 mm 0.00 in0.0 mm
05:25 AM 49.5°F9.7°C 42.9°F6.1°C 78% 2.7 mph WSW4.3 kmh WSW 7.1 mph11.4 kmh 29.89 in1012.2 mb 0.00 in0.0 mm 0.00 in0.0 mm 0.00 in0.0 mm
05:30 AM 49.6°F9.8°C 43.1°F6.2°C 78% 4.1 mph SW6.6 kmh SW 7.1 mph11.4 kmh 29.89 in1012.2 mb 0.00 in0.0 mm 0.00 in0.0 mm 0.00 in0.0 mm
05:35 AM 49.6°F9.8°C 43.1°F6.2°C 78% 3.0 mph SW4.8 kmh SW 5.7 mph9.2 kmh 29.89 in1012.2 mb 0.00 in0.0 mm 0.00 in0.0 mm 0.00 in0.0 mm
05:40 AM 49.5°F9.7°C 42.9°F6.1°C 78% 3.3 mph SW5.3 kmh SW 5.7 mph9.2 kmh 29.89 in1012.2 mb 0.00 in0.0 mm 0.00 in0.0 mm 0.00 in0.0 mm
05:45 AM 49.6°F9.8°C 43.1°F6.2°C 78% 3.5 mph SSW5.6 kmh SSW 3.8 mph6.1 kmh 29.89 in1012.2 mb 0.00 in0.0 mm 0.00 in0.0 mm 0.00 in0.0 mm
05:50 AM 49.5°F9.7°C 42.9°F6.1°C 78% 4.4 mph SSW7.1 kmh SSW 4.4 mph7.1 kmh 29.89 in1012.2 mb 0.00 in0.0 mm 0.00 in0.0 mm 0.00 in0.0 mm
05:55 AM 49.5°F9.7°C 42.9°F6.1°C 78% 1.9 mph SSW3.1 kmh SSW 4.4 mph7.1 kmh 29.89 in1012.2 mb 0.00 in0.0 mm 0.00 in0.0 mm 0.00 in0.0 mm
06:00 AM 49.5°F9.7°C 42.9°F6.1°C 78% 3.0 mph SSW4.8 kmh SSW 4.6 mph7.4 kmh 29.86 in1011.2 mb 0.00 in0.0 mm 0.00 in0.0 mm 0.00 in0.0 mm
06:05 AM 49.5°F9.7°C 43.2°F6.2°C 79% Calm Calm 4.6 mph7.4 kmh 29.86 in1011.2 mb 0.00 in0.0 mm 0.00 in0.0 mm 0.00 in0.0 mm
06:10 AM 49.6°F9.8°C 43.4°F6.3°C 79% 1.4 mph SW2.3 kmh SW 3.8 mph6.1 kmh 29.86 in1011.2 mb 0.00 in0.0 mm 0.00 in0.0 mm 0.00 in0.0 mm
06:15 AM 49.6°F9.8°C 43.4°F6.3°C 79% 3.3 mph SW5.3 kmh SW 3.8 mph6.1 kmh 29.86 in1011.2 mb 0.00 in0.0 mm 0.00 in0.0 mm 0.00 in0.0 mm
06:20 AM 49.6°F9.8°C 43.4°F6.3°C 79% 3.8 mph SW6.1 kmh SW 4.4 mph7.1 kmh 29.86 in1011.2 mb 0.00 in0.0 mm 0.00 in0.0 mm 0.00 in0.0 mm
06:25 AM 49.6°F9.8°C 43.4°F6.3°C 79% 3.3 mph SW5.3 kmh SW 4.4 mph7.1 kmh 29.86 in1011.2 mb 0.00 in0.0 mm 0.00 in0.0 mm 0.00 in0.0 mm
06:30 AM 49.6°F9.8°C 43.4°F6.3°C 79% 3.5 mph SSW5.6 kmh SSW 6.5 mph10.5 kmh 29.86 in1011.2 mb 0.00 in0.0 mm 0.00 in0.0 mm 0.00 in0.0 mm
06:35 AM 49.6°F9.8°C 43.4°F6.3°C 79% 3.0 mph SW4.8 kmh SW 6.5 mph10.5 kmh 29.86 in1011.2 mb 0.00 in0.0 mm 0.00 in0.0 mm 0.00 in0.0 mm
06:40 AM 49.5°F9.7°C 43.2°F6.2°C 79% 4.1 mph SW6.6 kmh SW 5.2 mph8.4 kmh 29.86 in1011.2 mb 0.00 in0.0 mm 0.00 in0.0 mm 0.00 in0.0 mm
06:45 AM 49.5°F9.7°C 43.2°F6.2°C 79% 1.9 mph WSW3.1 kmh WSW 5.2 mph8.4 kmh 29.86 in1011.2 mb 0.00 in0.0 mm 0.00 in0.0 mm 0.00 in0.0 mm
06:50 AM 49.5°F9.7°C 43.2°F6.2°C 79% 2.5 mph SW4.0 kmh SW 4.1 mph6.6 kmh 29.86 in1011.2 mb 0.00 in0.0 mm 0.00 in0.0 mm 0.00 in0.0 mm
06:55 AM 49.6°F9.8°C 43.4°F6.3°C 79% 3.0 mph SSW4.8 kmh SSW 3.3 mph5.3 kmh 29.86 in1011.2 mb 0.00 in0.0 mm 0.00 in0.0 mm 0.00 in0.0 mm
07:00 AM 49.6°F9.8°C 43.4°F6.3°C 79% 1.9 mph SW3.1 kmh SW 5.7 mph9.2 kmh 29.86 in1011.2 mb 0.00 in0.0 mm 0.00 in0.0 mm 0.00 in0.0 mm
07:05 AM 49.6°F9.8°C 43.4°F6.3°C 79% 3.3 mph SW5.3 kmh SW 5.7 mph9.2 kmh 29.86 in1011.2 mb 0.00 in0.0 mm 0.00 in0.0 mm 0.00 in0.0 mm
07:10 AM 49.8°F9.9°C 43.6°F6.4°C 79% 4.6 mph SW7.4 kmh SW 4.6 mph7.4 kmh 29.86 in1011.2 mb 0.00 in0.0 mm 0.00 in0.0 mm 0.00 in0.0 mm
07:15 AM 49.8°F9.9°C 43.6°F6.4°C 79% 2.5 mph WSW4.0 kmh WSW 5.2 mph8.4 kmh 29.86 in1011.2 mb 0.00 in0.0 mm 0.00 in0.0 mm 0.00 in0.0 mm
07:20 AM 49.8°F9.9°C 43.6°F6.4°C 79% 4.9 mph ESE7.9 kmh ESE 5.2 mph8.4 kmh 29.86 in1011.2 mb 0.00 in0.0 mm 0.00 in0.0 mm 0.00 in0.0 mm
07:25 AM 49.8°F9.9°C 43.6°F6.4°C 79% 1.9 mph SE3.1 kmh SE 4.9 mph7.9 kmh 29.86 in1011.2 mb 0.00 in0.0 mm 0.00 in0.0 mm 0.00 in0.0 mm
07:30 AM 50.0°F10.0°C 43.7°F6.5°C 79% 3.0 mph SSE4.8 kmh SSE 4.1 mph6.6 kmh 29.86 in1011.2 mb 0.00 in0.0 mm 0.00 in0.0 mm 0.00 in0.0 mm
07:35 AM 50.2°F10.1°C 43.9°F6.6°C 79% 1.4 mph S2.3 kmh S 4.1 mph6.6 kmh 29.86 in1011.2 mb 0.00 in0.0 mm 0.00 in0.0 mm 0.00 in0.0 mm
07:40 AM 50.2°F10.1°C 44.2°F6.8°C 80% 3.3 mph SSW5.3 kmh SSW 4.4 mph7.1 kmh 29.86 in1011.2 mb 0.00 in0.0 mm 0.00 in0.0 mm 0.00 in0.0 mm
07:45 AM 50.2°F10.1°C 44.6°F7.0°C 81% 5.2 mph WSW8.4 kmh WSW 5.2 mph8.4 kmh 29.86 in1011.2 mb 0.00 in0.0 mm 0.00 in0.0 mm 0.00 in0.0 mm
07:50 AM 50.2°F10.1°C 44.9°F7.2°C 82% 1.9 mph NW3.1 kmh NW 5.2 mph8.4 kmh 29.86 in1011.2 mb 0.00 in0.0 mm 0.00 in0.0 mm 0.00 in0.0 mm
07:55 AM 50.0°F10.0°C 45.0°F7.2°C 83% 4.6 mph WSW7.4 kmh WSW 4.6 mph7.4 kmh 29.86 in1011.2 mb 0.00 in0.0 mm 0.00 in0.0 mm 0.00 in0.0 mm
08:00 AM 50.0°F10.0°C 45.4°F7.4°C 84% Calm Calm 4.6 mph7.4 kmh 29.86 in1011.2 mb 0.00 in0.0 mm 0.00 in0.0 mm 0.00 in0.0 mm
08:05 AM 49.6°F9.8°C 45.3°F7.4°C 85% 1.4 mph N2.3 kmh N 4.6 mph7.4 kmh 29.86 in1011.2 mb 0.00 in0.0 mm 0.00 in0.0 mm 0.00 in0.0 mm
08:10 AM 49.6°F9.8°C 45.6°F7.6°C 86% Calm Calm 3.8 mph6.1 kmh 29.86 in1011.2 mb 0.00 in0.0 mm 0.00 in0.0 mm 0.00 in0.0 mm
08:15 AM 49.5°F9.7°C 45.4°F7.4°C 86% Calm Calm 3.8 mph6.1 kmh 29.86 in1011.2 mb 0.05 in1.3 mm 0.60 in15.2 mm 0.05 in1.3 mm
08:20 AM 49.3°F9.6°C 45.6°F7.6°C 87% 1.6 mph WSW2.6 kmh WSW 3.3 mph5.3 kmh 29.86 in1011.2 mb 0.05 in1.3 mm 0.00 in0.0 mm 0.05 in1.3 mm
08:25 AM 49.1°F9.5°C 46.0°F7.8°C 89% Calm Calm 4.4 mph7.1 kmh 29.86 in1011.2 mb 0.05 in1.3 mm 0.00 in0.0 mm 0.05 in1.3 mm
08:30 AM 49.1°F9.5°C 46.0°F7.8°C 89% Calm Calm 4.4 mph7.1 kmh 29.86 in1011.2 mb 0.05 in1.3 mm 0.00 in0.0 mm 0.05 in1.3 mm
08:35 AM 48.9°F9.4°C 46.1°F7.8°C 90% 4.9 mph W7.9 kmh W 4.9 mph7.9 kmh 29.86 in1011.2 mb 0.05 in1.3 mm 0.00 in0.0 mm 0.05 in1.3 mm
08:40 AM 48.9°F9.4°C 46.4°F8.0°C 91% 1.4 mph WNW2.3 kmh WNW 4.9 mph7.9 kmh 29.86 in1011.2 mb 0.05 in1.3 mm 0.00 in0.0 mm 0.05 in1.3 mm
08:45 AM 48.9°F9.4°C 46.4°F8.0°C 91% Calm Calm 4.9 mph7.9 kmh 29.86 in1011.2 mb 0.08 in2.0 mm 0.36 in9.1 mm 0.08 in2.0 mm
08:50 AM 49.1°F9.5°C 46.9°F8.3°C 92% Calm Calm 4.9 mph7.9 kmh 29.86 in1011.2 mb 0.08 in2.0 mm 0.00 in0.0 mm 0.08 in2.0 mm
08:55 AM 49.1°F9.5°C 47.2°F8.4°C 93% Calm Calm 4.9 mph7.9 kmh 29.86 in1011.2 mb 0.08 in2.0 mm 0.00 in0.0 mm 0.08 in2.0 mm
09:00 AM 49.1°F9.5°C 47.2°F8.4°C 93% 1.4 mph WNW2.3 kmh WNW 3.8 mph6.1 kmh 29.86 in1011.2 mb 0.08 in2.0 mm 0.00 in0.0 mm 0.08 in2.0 mm
09:05 AM 49.1°F9.5°C 47.2°F8.4°C 93% 2.7 mph NW4.3 kmh NW 4.4 mph7.1 kmh 29.86 in1011.2 mb 0.08 in2.0 mm 0.00 in0.0 mm 0.08 in2.0 mm
09:10 AM 49.1°F9.5°C 47.2°F8.4°C 93% 1.4 mph NW2.3 kmh NW 4.6 mph7.4 kmh 29.86 in1011.2 mb 0.08 in2.0 mm 0.00 in0.0 mm 0.08 in2.0 mm
09:15 AM 49.3°F9.6°C 47.6°F8.7°C 94% 3.0 mph NW4.8 kmh NW 4.6 mph7.4 kmh 29.83 in1010.2 mb 0.03 in0.8 mm 0.00 in0.0 mm 0.08 in2.0 mm
09:20 AM 49.6°F9.8°C 48.0°F8.9°C 94% Calm Calm 5.2 mph8.4 kmh 29.83 in1010.2 mb 0.03 in0.8 mm 0.00 in0.0 mm 0.08 in2.0 mm
09:25 AM 49.8°F9.9°C 48.2°F9.0°C 94% 5.2 mph NW8.4 kmh NW 5.7 mph9.2 kmh 29.83 in1010.2 mb 0.03 in0.8 mm 0.00 in0.0 mm 0.08 in2.0 mm
09:30 AM 49.8°F9.9°C 48.2°F9.0°C 94% 1.6 mph NW2.6 kmh NW 5.7 mph9.2 kmh 29.83 in1010.2 mb 0.03 in0.8 mm 0.00 in0.0 mm 0.08 in2.0 mm
09:35 AM 49.8°F9.9°C 48.2°F9.0°C 94% Calm Calm 4.6 mph7.4 kmh 29.83 in1010.2 mb 0.03 in0.8 mm 0.00 in0.0 mm 0.08 in2.0 mm
09:40 AM 50.2°F10.1°C 48.5°F9.2°C 94% 1.9 mph W3.1 kmh W 4.6 mph7.4 kmh 29.83 in1010.2 mb 0.03 in0.8 mm 0.00 in0.0 mm 0.08 in2.0 mm
09:45 AM 50.2°F10.1°C 48.5°F9.2°C 94% 3.0 mph NNW4.8 kmh NNW 4.9 mph7.9 kmh 29.83 in1010.2 mb 0.00 in0.0 mm 0.00 in0.0 mm 0.08 in2.0 mm
09:50 AM 50.2°F10.1°C 48.5°F9.2°C 94% 4.4 mph NNW7.1 kmh NNW 6.8 mph10.9 kmh 29.83 in1010.2 mb 0.00 in0.0 mm 0.00 in0.0 mm 0.08 in2.0 mm
09:55 AM 49.8°F9.9°C 48.2°F9.0°C 94% 6.0 mph NW9.7 kmh NW 6.8 mph10.9 kmh 29.83 in1010.2 mb 0.00 in0.0 mm 0.00 in0.0 mm 0.08 in2.0 mm
10:00 AM 49.6°F9.8°C 48.0°F8.9°C 94% 6.8 mph NW10.9 kmh NW 6.8 mph10.9 kmh 29.83 in1010.2 mb 0.00 in0.0 mm 0.00 in0.0 mm 0.08 in2.0 mm
10:05 AM 49.5°F9.7°C 47.8°F8.8°C 94% 5.5 mph NW8.9 kmh NW 7.6 mph12.2 kmh 29.83 in1010.2 mb 0.00 in0.0 mm 0.00 in0.0 mm 0.08 in2.0 mm
10:10 AM 49.5°F9.7°C 47.8°F8.8°C 94% 3.5 mph NW5.6 kmh NW 7.6 mph12.2 kmh 29.83 in1010.2 mb 0.00 in0.0 mm 0.00 in0.0 mm 0.08 in2.0 mm
10:15 AM 49.5°F9.7°C 47.8°F8.8°C 94% 4.1 mph W6.6 kmh W 7.1 mph11.4 kmh 29.83 in1010.2 mb 0.00 in0.0 mm 0.00 in0.0 mm 0.08 in2.0 mm
10:20 AM 49.5°F9.7°C 47.8°F8.8°C 94% 3.3 mph W5.3 kmh W 5.7 mph9.2 kmh 29.83 in1010.2 mb 0.00 in0.0 mm 0.00 in0.0 mm 0.08 in2.0 mm
10:25 AM 49.5°F9.7°C 47.8°F8.8°C 94% 2.5 mph W4.0 kmh W 5.7 mph9.2 kmh 29.83 in1010.2 mb 0.00 in0.0 mm 0.00 in0.0 mm 0.08 in2.0 mm
10:30 AM 49.5°F9.7°C 47.8°F8.8°C 94% 3.8 mph NW6.1 kmh NW 4.9 mph7.9 kmh 29.83 in1010.2 mb 0.00 in0.0 mm 0.00 in0.0 mm 0.08 in2.0 mm
10:35 AM 49.5°F9.7°C 47.8°F8.8°C 94% 4.9 mph NW7.9 kmh NW 8.7 mph14.0 kmh 29.83 in1010.2 mb 0.00 in0.0 mm 0.00 in0.0 mm 0.08 in2.0 mm
10:40 AM 49.3°F9.6°C 47.3°F8.5°C 93% 9.0 mph NW14.5 kmh NW 9.3 mph15.0 kmh 29.83 in1010.2 mb 0.00 in0.0 mm 0.00 in0.0 mm 0.08 in2.0 mm
10:45 AM 49.3°F9.6°C 47.3°F8.5°C 93% 10.4 mph NW16.7 kmh NW 10.4 mph16.7 kmh 29.83 in1010.2 mb 0.00 in0.0 mm 0.00 in0.0 mm 0.08 in2.0 mm
10:50 AM 49.5°F9.7°C 47.5°F8.6°C 93% 4.9 mph NW7.9 kmh NW 10.4 mph16.7 kmh 29.83 in1010.2 mb 0.00 in0.0 mm 0.00 in0.0 mm 0.08 in2.0 mm
10:55 AM 49.6°F9.8°C 47.7°F8.7°C 93% 9.6 mph NNW15.4 kmh NNW 9.6 mph15.4 kmh 29.83 in1010.2 mb 0.00 in0.0 mm 0.00 in0.0 mm 0.08 in2.0 mm
11:00 AM 49.6°F9.8°C 47.7°F8.7°C 93% 6.5 mph NNW10.5 kmh NNW 9.6 mph15.4 kmh 29.83 in1010.2 mb 0.00 in0.0 mm 0.00 in0.0 mm 0.08 in2.0 mm
11:05 AM 49.8°F9.9°C 47.9°F8.8°C 93% 5.2 mph NNW8.4 kmh NNW 7.6 mph12.2 kmh 29.83 in1010.2 mb 0.00 in0.0 mm 0.00 in0.0 mm 0.08 in2.0 mm
11:10 AM 49.8°F9.9°C 47.9°F8.8°C 93% 7.9 mph NW12.7 kmh NW 9.0 mph14.5 kmh 29.83 in1010.2 mb 0.00 in0.0 mm 0.00 in0.0 mm 0.08 in2.0 mm
11:15 AM 49.6°F9.8°C 47.7°F8.7°C 93% 7.4 mph NW11.9 kmh NW 9.0 mph14.5 kmh 29.83 in1010.2 mb 0.00 in0.0 mm 0.00 in0.0 mm 0.08 in2.0 mm
11:20 AM 49.5°F9.7°C 47.2°F8.4°C 92% 5.2 mph NW8.4 kmh NW 9.3 mph15.0 kmh 29.83 in1010.2 mb 0.00 in0.0 mm 0.00 in0.0 mm 0.08 in2.0 mm
11:25 AM 49.3°F9.6°C 47.1°F8.4°C 92% 3.8 mph NNW6.1 kmh NNW 9.3 mph15.0 kmh 29.83 in1010.2 mb 0.00 in0.0 mm 0.00 in0.0 mm 0.08 in2.0 mm
11:30 AM 49.3°F9.6°C 46.5°F8.1°C 90% 9.0 mph NNW14.5 kmh NNW 9.0 mph14.5 kmh 29.83 in1010.2 mb 0.00 in0.0 mm 0.00 in0.0 mm 0.08 in2.0 mm
11:35 AM 49.1°F9.5°C 46.3°F7.9°C 90% 4.4 mph NW7.1 kmh NW 9.6 mph15.4 kmh 29.83 in1010.2 mb 0.00 in0.0 mm 0.00 in0.0 mm 0.08 in2.0 mm
11:40 AM 49.1°F9.5°C 46.3°F7.9°C 90% 4.9 mph NW7.9 kmh NW 9.6 mph15.4 kmh 29.83 in1010.2 mb 0.00 in0.0 mm 0.00 in0.0 mm 0.08 in2.0 mm
11:45 AM 49.5°F9.7°C 46.6°F8.1°C 90% 7.4 mph NW11.9 kmh NW 11.2 mph18.0 kmh 29.83 in1010.2 mb 0.00 in0.0 mm 0.00 in0.0 mm 0.08 in2.0 mm
11:50 AM 49.5°F9.7°C 46.6°F8.1°C 90% 13.4 mph NW21.6 kmh NW 13.4 mph21.6 kmh 29.83 in1010.2 mb 0.00 in0.0 mm 0.00 in0.0 mm 0.08 in2.0 mm
11:55 AM 49.6°F9.8°C 46.8°F8.2°C 90% 6.8 mph NW10.9 kmh NW 13.4 mph21.6 kmh 29.83 in1010.2 mb 0.00 in0.0 mm 0.00 in0.0 mm 0.08 in2.0 mm
12:00 PM 49.6°F9.8°C 46.8°F8.2°C 90% 6.5 mph NNW10.5 kmh NNW 13.4 mph21.6 kmh 29.83 in1010.2 mb 0.00 in0.0 mm 0.00 in0.0 mm 0.08 in2.0 mm
12:05 PM 49.8°F9.9°C 46.7°F8.2°C 89% 6.5 mph NW10.5 kmh NW 8.5 mph13.7 kmh 29.83 in1010.2 mb 0.00 in0.0 mm 0.00 in0.0 mm 0.08 in2.0 mm
12:10 PM 50.2°F10.1°C 47.4°F8.6°C 90% 9.0 mph NW14.5 kmh NW 9.0 mph14.5 kmh 29.83 in1010.2 mb 0.00 in0.0 mm 0.00 in0.0 mm 0.08 in2.0 mm
12:15 PM 51.1°F10.6°C 48.5°F9.2°C 91% 6.0 mph NW9.7 kmh NW 9.0 mph14.5 kmh 29.83 in1010.2 mb 0.00 in0.0 mm 0.00 in0.0 mm 0.08 in2.0 mm
12:25 PM 52.0°F11.1°C 48.8°F9.3°C 89% 4.4 mph NNW7.1 kmh NNW 12.8 mph20.6 kmh 29.83 in1010.2 mb 0.00 in0.0 mm 0.00 in0.0 mm 0.08 in2.0 mm
12:30 PM 51.8°F11.0°C 48.1°F8.9°C 87% 3.8 mph NW6.1 kmh NW 12.8 mph20.6 kmh 29.83 in1010.2 mb 0.00 in0.0 mm 0.00 in0.0 mm 0.08 in2.0 mm
12:35 PM 51.6°F10.9°C 47.6°F8.7°C 86% 6.8 mph NW10.9 kmh NW 7.6 mph12.2 kmh 29.83 in1010.2 mb 0.00 in0.0 mm 0.00 in0.0 mm 0.08 in2.0 mm
12:40 PM 51.8°F11.0°C 48.1°F8.9°C 87% 5.2 mph NW8.4 kmh NW 7.6 mph12.2 kmh 29.83 in1010.2 mb 0.00 in0.0 mm 0.00 in0.0 mm 0.08 in2.0 mm
12:45 PM 52.0°F11.1°C 47.9°F8.8°C 86% 5.7 mph NW9.2 kmh NW 6.8 mph10.9 kmh 29.83 in1010.2 mb 0.00 in0.0 mm 0.00 in0.0 mm 0.08 in2.0 mm
12:50 PM 52.2°F11.2°C 47.8°F8.8°C 85% 4.1 mph NNW6.6 kmh NNW 7.1 mph11.4 kmh 29.83 in1010.2 mb 0.00 in0.0 mm 0.00 in0.0 mm 0.08 in2.0 mm
12:55 PM 52.3°F11.3°C 47.6°F8.7°C 84% 5.2 mph NNW8.4 kmh NNW 15.0 mph24.1 kmh 29.83 in1010.2 mb 0.00 in0.0 mm 0.00 in0.0 mm 0.08 in2.0 mm
01:00 PM 52.5°F11.4°C 47.5°F8.6°C 83% 7.9 mph NW12.7 kmh NW 15.0 mph24.1 kmh 29.83 in1010.2 mb 0.00 in0.0 mm 0.00 in0.0 mm 0.08 in2.0 mm
01:05 PM 52.2°F11.2°C 45.8°F7.7°C 79% 7.6 mph NW12.2 kmh NW 13.9 mph22.4 kmh 29.83 in1010.2 mb 0.00 in0.0 mm 0.00 in0.0 mm 0.08 in2.0 mm
01:10 PM 51.6°F10.9°C 45.7°F7.6°C 80% 7.6 mph NW12.2 kmh NW 13.9 mph22.4 kmh 29.80 in1009.1 mb 0.00 in0.0 mm 0.00 in0.0 mm 0.08 in2.0 mm
01:15 PM 51.3°F10.7°C 45.0°F7.2°C 79% 5.2 mph NNW8.4 kmh NNW 9.0 mph14.5 kmh 29.80 in1009.1 mb 0.00 in0.0 mm 0.00 in0.0 mm 0.08 in2.0 mm
01:20 PM 50.9°F10.5°C 45.3°F7.4°C 81% 7.4 mph NW11.9 kmh NW 8.5 mph13.7 kmh 29.80 in1009.1 mb 0.00 in0.0 mm 0.00 in0.0 mm 0.08 in2.0 mm
01:25 PM 50.4°F10.2°C 44.1°F6.7°C 79% 6.8 mph NW10.9 kmh NW 12.3 mph19.8 kmh 29.80 in1009.1 mb 0.00 in0.0 mm 0.00 in0.0 mm 0.08 in2.0 mm
01:30 PM 50.0°F10.0°C 43.4°F6.3°C 78% 7.1 mph NW11.4 kmh NW 12.3 mph19.8 kmh 29.83 in1010.2 mb 0.00 in0.0 mm 0.00 in0.0 mm 0.08 in2.0 mm
01:35 PM 49.8°F9.9°C 43.9°F6.6°C 80% 8.5 mph NNW13.7 kmh NNW 10.9 mph17.5 kmh 29.83 in1010.2 mb 0.00 in0.0 mm 0.00 in0.0 mm 0.08 in2.0 mm
01:40 PM 49.5°F9.7°C 43.5°F6.4°C 80% 5.2 mph NNW8.4 kmh NNW 10.9 mph17.5 kmh 29.80 in1009.1 mb 0.00 in0.0 mm 0.00 in0.0 mm 0.08 in2.0 mm
01:45 PM 49.6°F9.8°C 43.7°F6.5°C 80% 15.3 mph NNW24.6 kmh NNW 15.3 mph24.6 kmh 29.80 in1009.1 mb 0.00 in0.0 mm 0.00 in0.0 mm 0.08 in2.0 mm
01:50 PM 50.0°F10.0°C 43.4°F6.3°C 78% 4.1 mph NNW6.6 kmh NNW 15.3 mph24.6 kmh 29.80 in1009.1 mb 0.00 in0.0 mm 0.00 in0.0 mm 0.08 in2.0 mm
01:55 PM 50.4°F10.2°C 43.8°F6.6°C 78% 10.4 mph NW16.7 kmh NW 15.3 mph24.6 kmh 29.80 in1009.1 mb 0.00 in0.0 mm 0.00 in0.0 mm 0.08 in2.0 mm
02:00 PM 50.2°F10.1°C 42.6°F5.9°C 75% 4.6 mph NW7.4 kmh NW 16.1 mph25.9 kmh 29.80 in1009.1 mb 0.00 in0.0 mm 0.00 in0.0 mm 0.08 in2.0 mm
02:05 PM 50.0°F10.0°C 42.4°F5.8°C 75% 6.5 mph NNW10.5 kmh NNW 16.1 mph25.9 kmh 29.80 in1009.1 mb 0.00 in0.0 mm 0.00 in0.0 mm 0.08 in2.0 mm
02:10 PM 49.6°F9.8°C 42.4°F5.8°C 76% 9.3 mph NNW15.0 kmh NNW 13.1 mph21.1 kmh 29.80 in1009.1 mb 0.00 in0.0 mm 0.00 in0.0 mm 0.08 in2.0 mm
02:15 PM 49.3°F9.6°C 42.0°F5.6°C 76% 7.4 mph NNW11.9 kmh NNW 13.1 mph21.1 kmh 29.83 in1010.2 mb 0.00 in0.0 mm 0.00 in0.0 mm 0.08 in2.0 mm
02:20 PM 49.3°F9.6°C 41.7°F5.4°C 75% 6.5 mph NNW10.5 kmh NNW 12.3 mph19.8 kmh 29.83 in1010.2 mb 0.00 in0.0 mm 0.00 in0.0 mm 0.08 in2.0 mm
02:25 PM 49.1°F9.5°C 42.2°F5.7°C 77% 7.6 mph NW12.2 kmh NW 12.3 mph19.8 kmh 29.83 in1010.2 mb 0.00 in0.0 mm 0.00 in0.0 mm 0.08 in2.0 mm
02:30 PM 49.1°F9.5°C 42.5°F5.8°C 78% 8.7 mph NW14.0 kmh NW 12.3 mph19.8 kmh 29.83 in1010.2 mb 0.00 in0.0 mm 0.00 in0.0 mm 0.08 in2.0 mm
02:35 PM 48.9°F9.4°C 42.0°F5.6°C 77% 13.1 mph NNW21.1 kmh NNW 16.1 mph25.9 kmh 29.83 in1010.2 mb 0.00 in0.0 mm 0.00 in0.0 mm 0.08 in2.0 mm
02:40 PM 48.7°F9.3°C 41.8°F5.4°C 77% 8.7 mph NNW14.0 kmh NNW 18.0 mph29.0 kmh 29.83 in1010.2 mb 0.00 in0.0 mm 0.00 in0.0 mm 0.08 in2.0 mm
02:45 PM 48.6°F9.2°C 42.0°F5.6°C 78% 9.0 mph NW14.5 kmh NW 18.0 mph29.0 kmh 29.83 in1010.2 mb 0.00 in0.0 mm 0.00 in0.0 mm 0.08 in2.0 mm
02:50 PM 48.6°F9.2°C 42.3°F5.7°C 79% 6.0 mph NW9.7 kmh NW 15.6 mph25.1 kmh 29.83 in1010.2 mb 0.00 in0.0 mm 0.00 in0.0 mm 0.08 in2.0 mm
02:55 PM 48.7°F9.3°C 42.2°F5.7°C 78% 9.6 mph NW15.4 kmh NW 15.0 mph24.1 kmh 29.83 in1010.2 mb 0.00 in0.0 mm 0.00 in0.0 mm 0.08 in2.0 mm
03:00 PM 48.7°F9.3°C 41.5°F5.3°C 76% 13.1 mph NW21.1 kmh NW 13.1 mph21.1 kmh 29.83 in1010.2 mb 0.00 in0.0 mm 0.00 in0.0 mm 0.08 in2.0 mm
03:05 PM 48.7°F9.3°C 41.5°F5.3°C 76% 11.7 mph NNW18.8 kmh NNW 16.1 mph25.9 kmh 29.83 in1010.2 mb 0.00 in0.0 mm 0.00 in0.0 mm 0.08 in2.0 mm
03:10 PM 47.7°F8.7°C 41.8°F5.4°C 80% 7.9 mph NNW12.7 kmh NNW 16.1 mph25.9 kmh 29.83 in1010.2 mb 0.00 in0.0 mm 0.00 in0.0 mm 0.08 in2.0 mm
03:15 PM 47.5°F8.6°C 42.3°F5.7°C 82% 5.7 mph NNW9.2 kmh NNW 12.8 mph20.6 kmh 29.83 in1010.2 mb 0.00 in0.0 mm 0.00 in0.0 mm 0.08 in2.0 mm
03:20 PM 47.5°F8.6°C 42.3°F5.7°C 82% 10.4 mph NW16.7 kmh NW 12.8 mph20.6 kmh 29.83 in1010.2 mb 0.00 in0.0 mm 0.00 in0.0 mm 0.08 in2.0 mm
03:25 PM 47.5°F8.6°C 42.3°F5.7°C 82% 5.2 mph NNW8.4 kmh NNW 13.4 mph21.6 kmh 29.83 in1010.2 mb 0.00 in0.0 mm 0.00 in0.0 mm 0.08 in2.0 mm
03:30 PM 47.7°F8.7°C 41.8°F5.4°C 80% 5.2 mph NW8.4 kmh NW 13.4 mph21.6 kmh 29.83 in1010.2 mb 0.00 in0.0 mm 0.00 in0.0 mm 0.08 in2.0 mm
03:35 PM 47.7°F8.7°C 41.8°F5.4°C 80% 4.6 mph NW7.4 kmh NW 7.9 mph12.7 kmh 29.83 in1010.2 mb 0.00 in0.0 mm 0.00 in0.0 mm 0.08 in2.0 mm
03:40 PM 47.7°F8.7°C 42.1°F5.6°C 81% 6.0 mph NW9.7 kmh NW 9.3 mph15.0 kmh 29.83 in1010.2 mb 0.00 in0.0 mm 0.00 in0.0 mm 0.08 in2.0 mm
03:45 PM 47.7°F8.7°C 41.8°F5.4°C 80% 4.1 mph NW6.6 kmh NW 10.6 mph17.1 kmh 29.83 in1010.2 mb 0.00 in0.0 mm 0.00 in0.0 mm 0.08 in2.0 mm
03:50 PM 47.5°F8.6°C 41.6°F5.3°C 80% 9.8 mph NW15.8 kmh NW 10.9 mph17.5 kmh 29.83 in1010.2 mb 0.00 in0.0 mm 0.00 in0.0 mm 0.08 in2.0 mm
03:55 PM 47.5°F8.6°C 41.3°F5.2°C 79% 6.8 mph NW10.9 kmh NW 10.9 mph17.5 kmh 29.83 in1010.2 mb 0.00 in0.0 mm 0.00 in0.0 mm 0.08 in2.0 mm
04:00 PM 47.7°F8.7°C 41.8°F5.4°C 80% 6.0 mph NNW9.7 kmh NNW 12.8 mph20.6 kmh 29.86 in1011.2 mb 0.00 in0.0 mm 0.00 in0.0 mm 0.08 in2.0 mm
04:05 PM 47.5°F8.6°C 41.3°F5.2°C 79% 4.1 mph NNW6.6 kmh NNW 12.8 mph20.6 kmh 29.86 in1011.2 mb 0.00 in0.0 mm 0.00 in0.0 mm 0.08 in2.0 mm
04:10 PM 47.3°F8.5°C 41.8°F5.4°C 81% 4.6 mph NW7.4 kmh NW 10.4 mph16.7 kmh 29.86 in1011.2 mb 0.00 in0.0 mm 0.00 in0.0 mm 0.08 in2.0 mm
04:15 PM 47.3°F8.5°C 42.1°F5.6°C 82% 6.5 mph NW10.5 kmh NW 10.4 mph16.7 kmh 29.86 in1011.2 mb 0.00 in0.0 mm 0.00 in0.0 mm 0.08 in2.0 mm
04:20 PM 47.1°F8.4°C 41.9°F5.5°C 82% 9.0 mph NW14.5 kmh NW 9.0 mph14.5 kmh 29.86 in1011.2 mb 0.00 in0.0 mm 0.00 in0.0 mm 0.08 in2.0 mm
04:25 PM 47.1°F8.4°C 41.6°F5.3°C 81% 9.0 mph NW14.5 kmh NW 9.6 mph15.4 kmh 29.86 in1011.2 mb 0.00 in0.0 mm 0.00 in0.0 mm 0.08 in2.0 mm
04:30 PM 46.9°F8.3°C 41.4°F5.2°C 81% 6.0 mph NW9.7 kmh NW 9.6 mph15.4 kmh 29.86 in1011.2 mb 0.00 in0.0 mm 0.00 in0.0 mm 0.08 in2.0 mm
04:35 PM 46.8°F8.2°C 41.6°F5.3°C 82% 3.8 mph NW6.1 kmh NW 9.3 mph15.0 kmh 29.86 in1011.2 mb 0.00 in0.0 mm 0.00 in0.0 mm 0.08 in2.0 mm
04:40 PM 46.6°F8.1°C 41.1°F5.1°C 81% 5.7 mph NNW9.2 kmh NNW 6.8 mph10.9 kmh 29.86 in1011.2 mb 0.00 in0.0 mm 0.00 in0.0 mm 0.08 in2.0 mm
04:45 PM 46.4°F8.0°C 41.2°F5.1°C 82% 3.5 mph NW5.6 kmh NW 6.8 mph10.9 kmh 29.86 in1011.2 mb 0.00 in0.0 mm 0.00 in0.0 mm 0.08 in2.0 mm
04:50 PM 46.4°F8.0°C 41.2°F5.1°C 82% 4.1 mph NW6.6 kmh NW 6.8 mph10.9 kmh 29.86 in1011.2 mb 0.00 in0.0 mm 0.00 in0.0 mm 0.08 in2.0 mm
04:55 PM 46.2°F7.9°C 41.3°F5.2°C 83% 3.5 mph N5.6 kmh N 6.8 mph10.9 kmh 29.86 in1011.2 mb 0.00 in0.0 mm 0.00 in0.0 mm 0.08 in2.0 mm
05:00 PM 46.0°F7.8°C 41.2°F5.1°C 83% 6.5 mph N10.5 kmh N 7.9 mph12.7 kmh 29.86 in1011.2 mb 0.00 in0.0 mm 0.00 in0.0 mm 0.08 in2.0 mm
05:05 PM 46.2°F7.9°C 41.0°F5.0°C 82% 3.0 mph NW4.8 kmh NW 7.9 mph12.7 kmh 29.86 in1011.2 mb 0.00 in0.0 mm 0.00 in0.0 mm 0.08 in2.0 mm
05:10 PM 45.3°F7.4°C 41.1°F5.1°C 85% 5.2 mph N8.4 kmh N 9.6 mph15.4 kmh 29.86 in1011.2 mb 0.00 in0.0 mm 0.00 in0.0 mm 0.08 in2.0 mm
05:15 PM 44.6°F7.0°C 40.7°F4.8°C 86% 3.8 mph N6.1 kmh N 9.6 mph15.4 kmh 29.89 in1012.2 mb 0.00 in0.0 mm 0.00 in0.0 mm 0.08 in2.0 mm
05:20 PM 44.2°F6.8°C 40.6°F4.8°C 87% 6.0 mph NW9.7 kmh NW 7.4 mph11.9 kmh 29.89 in1012.2 mb 0.00 in0.0 mm 0.00 in0.0 mm 0.08 in2.0 mm
05:25 PM 43.9°F6.6°C 40.3°F4.6°C 87% 5.2 mph NW8.4 kmh NW 6.0 mph9.7 kmh 29.89 in1012.2 mb 0.00 in0.0 mm 0.00 in0.0 mm 0.08 in2.0 mm
05:30 PM 43.7°F6.5°C 40.4°F4.7°C 88% 3.3 mph NNW5.3 kmh NNW 6.0 mph9.7 kmh 29.89 in1012.2 mb 0.00 in0.0 mm 0.00 in0.0 mm 0.08 in2.0 mm
05:35 PM 43.5°F6.4°C 40.2°F4.6°C 88% 3.0 mph NNW4.8 kmh NNW 6.8 mph10.9 kmh 29.89 in1012.2 mb 0.00 in0.0 mm 0.00 in0.0 mm 0.08 in2.0 mm
05:40 PM 43.3°F6.3°C 40.0°F4.4°C 88% 3.3 mph NW5.3 kmh NW 6.8 mph10.9 kmh 29.89 in1012.2 mb 0.00 in0.0 mm 0.00 in0.0 mm 0.08 in2.0 mm
05:45 PM 43.2°F6.2°C 40.1°F4.5°C 89% 3.3 mph NNW5.3 kmh NNW 4.9 mph7.9 kmh 29.89 in1012.2 mb 0.00 in0.0 mm 0.00 in0.0 mm 0.08 in2.0 mm
05:50 PM 43.0°F6.1°C 40.0°F4.4°C 89% 2.5 mph NNW4.0 kmh NNW 4.9 mph7.9 kmh 29.89 in1012.2 mb 0.00 in0.0 mm 0.00 in0.0 mm 0.08 in2.0 mm
05:55 PM 43.0°F6.1°C 40.0°F4.4°C 89% 2.5 mph NW4.0 kmh NW 4.9 mph7.9 kmh 29.89 in1012.2 mb 0.00 in0.0 mm 0.00 in0.0 mm 0.08 in2.0 mm
06:00 PM 42.6°F5.9°C 39.9°F4.4°C 90% 3.5 mph NW5.6 kmh NW 4.9 mph7.9 kmh 29.89 in1012.2 mb 0.00 in0.0 mm 0.00 in0.0 mm 0.08 in2.0 mm
06:05 PM 42.4°F5.8°C 39.7°F4.3°C 90% 2.7 mph NW4.3 kmh NW 4.9 mph7.9 kmh 29.89 in1012.2 mb 0.00 in0.0 mm 0.00 in0.0 mm 0.08 in2.0 mm
06:10 PM 42.3°F5.7°C 39.5°F4.2°C 90% 3.0 mph NW4.8 kmh NW 4.9 mph7.9 kmh 29.89 in1012.2 mb 0.00 in0.0 mm 0.00 in0.0 mm 0.08 in2.0 mm
06:15 PM 42.3°F5.7°C 39.5°F4.2°C 90% 3.5 mph NW5.6 kmh NW 4.6 mph7.4 kmh 29.89 in1012.2 mb 0.00 in0.0 mm 0.00 in0.0 mm 0.08 in2.0 mm
06:20 PM 42.1°F5.6°C 39.4°F4.1°C 90% 1.9 mph NW3.1 kmh NW 4.1 mph6.6 kmh 29.89 in1012.2 mb 0.00 in0.0 mm 0.00 in0.0 mm 0.08 in2.0 mm
06:25 PM 42.1°F5.6°C 39.6°F4.2°C 91% 1.6 mph NW2.6 kmh NW 4.1 mph6.6 kmh 29.89 in1012.2 mb 0.00 in0.0 mm 0.00 in0.0 mm 0.08 in2.0 mm
06:30 PM 42.1°F5.6°C 39.6°F4.2°C 91% 3.5 mph NW5.6 kmh NW 4.1 mph6.6 kmh 29.89 in1012.2 mb 0.00 in0.0 mm 0.00 in0.0 mm 0.08 in2.0 mm
06:35 PM 42.1°F5.6°C 39.6°F4.2°C 91% 3.8 mph WNW6.1 kmh WNW 6.8 mph10.9 kmh 29.89 in1012.2 mb 0.00 in0.0 mm 0.00 in0.0 mm 0.08 in2.0 mm
06:40 PM 42.3°F5.7°C 39.8°F4.3°C 91% 4.1 mph NW6.6 kmh NW 6.8 mph10.9 kmh 29.89 in1012.2 mb 0.00 in0.0 mm 0.00 in0.0 mm 0.08 in2.0 mm
06:45 PM 42.3°F5.7°C 39.8°F4.3°C 91% 3.3 mph NNW5.3 kmh NNW 4.9 mph7.9 kmh 29.89 in1012.2 mb 0.00 in0.0 mm 0.00 in0.0 mm 0.08 in2.0 mm
06:50 PM 42.3°F5.7°C 39.8°F4.3°C 91% 3.0 mph NNW4.8 kmh NNW 4.9 mph7.9 kmh 29.89 in1012.2 mb 0.00 in0.0 mm 0.00 in0.0 mm 0.08 in2.0 mm
06:55 PM 42.3°F5.7°C 39.8°F4.3°C 91% 3.8 mph NNW6.1 kmh NNW 3.8 mph6.1 kmh 29.89 in1012.2 mb 0.00 in0.0 mm 0.00 in0.0 mm 0.08 in2.0 mm
07:00 PM 42.4°F5.8°C 40.0°F4.4°C 91% 3.0 mph N4.8 kmh N 3.8 mph6.1 kmh 29.89 in1012.2 mb 0.00 in0.0 mm 0.00 in0.0 mm 0.08 in2.0 mm
07:05 PM 42.4°F5.8°C 40.0°F4.4°C 91% 4.6 mph NW7.4 kmh NW 4.6 mph7.4 kmh 29.89 in1012.2 mb 0.00 in0.0 mm 0.00 in0.0 mm 0.08 in2.0 mm
07:10 PM 42.4°F5.8°C 40.3°F4.6°C 92% 3.5 mph W5.6 kmh W 4.6 mph7.4 kmh 29.89 in1012.2 mb 0.00 in0.0 mm 0.00 in0.0 mm 0.08 in2.0 mm
07:15 PM 42.4°F5.8°C 40.3°F4.6°C 92% 6.5 mph W10.5 kmh W 6.5 mph10.5 kmh 29.89 in1012.2 mb 0.00 in0.0 mm 0.00 in0.0 mm 0.08 in2.0 mm
07:20 PM 42.4°F5.8°C 40.3°F4.6°C 92% 1.6 mph WSW2.6 kmh WSW 6.5 mph10.5 kmh 29.89 in1012.2 mb 0.00 in0.0 mm 0.00 in0.0 mm 0.08 in2.0 mm
07:25 PM 42.6°F5.9°C 40.2°F4.6°C 91% 4.1 mph NNW6.6 kmh NNW 4.1 mph6.6 kmh 29.89 in1012.2 mb 0.00 in0.0 mm 0.00 in0.0 mm 0.08 in2.0 mm
07:30 PM 42.6°F5.9°C 40.2°F4.6°C 91% 3.8 mph NNW6.1 kmh NNW 4.6 mph7.4 kmh 29.89 in1012.2 mb 0.00 in0.0 mm 0.00 in0.0 mm 0.08 in2.0 mm
07:35 PM 42.6°F5.9°C 40.2°F4.6°C 91% 3.0 mph NW4.8 kmh NW 5.2 mph8.4 kmh 29.89 in1012.2 mb 0.00 in0.0 mm 0.00 in0.0 mm 0.08 in2.0 mm
07:40 PM 42.4°F5.8°C 40.3°F4.6°C 92% 1.9 mph NNW3.1 kmh NNW 5.2 mph8.4 kmh 29.89 in1012.2 mb 0.00 in0.0 mm 0.00 in0.0 mm 0.08 in2.0 mm
07:45 PM 42.4°F5.8°C 40.3°F4.6°C 92% 5.7 mph NW9.2 kmh NW 5.7 mph9.2 kmh 29.89 in1012.2 mb 0.00 in0.0 mm 0.00 in0.0 mm 0.08 in2.0 mm
07:50 PM 42.6°F5.9°C 40.2°F4.6°C 91% 3.0 mph NW4.8 kmh NW 5.7 mph9.2 kmh 29.89 in1012.2 mb 0.00 in0.0 mm 0.00 in0.0 mm 0.08 in2.0 mm
07:55 PM 42.6°F5.9°C 40.2°F4.6°C 91% 3.8 mph NW6.1 kmh NW 8.2 mph13.2 kmh 29.89 in1012.2 mb 0.00 in0.0 mm 0.00 in0.0 mm 0.08 in2.0 mm
08:00 PM 42.6°F5.9°C 40.2°F4.6°C 91% 3.5 mph WNW5.6 kmh WNW 8.2 mph13.2 kmh 29.89 in1012.2 mb 0.00 in0.0 mm 0.00 in0.0 mm 0.08 in2.0 mm
08:05 PM 42.6°F5.9°C 40.2°F4.6°C 91% 3.8 mph NW6.1 kmh NW 5.2 mph8.4 kmh 29.89 in1012.2 mb 0.00 in0.0 mm 0.00 in0.0 mm 0.08 in2.0 mm
08:10 PM 42.4°F5.8°C 40.0°F4.4°C 91% 1.6 mph NW2.6 kmh NW 5.2 mph8.4 kmh 29.89 in1012.2 mb 0.00 in0.0 mm 0.00 in0.0 mm 0.08 in2.0 mm
08:15 PM 42.4°F5.8°C 39.7°F4.3°C 90% 6.0 mph NW9.7 kmh NW 6.8 mph10.9 kmh 29.89 in1012.2 mb 0.00 in0.0 mm 0.00 in0.0 mm 0.08 in2.0 mm
08:20 PM 42.4°F5.8°C 39.7°F4.3°C 90% 3.3 mph NNW5.3 kmh NNW 6.8 mph10.9 kmh 29.89 in1012.2 mb 0.00 in0.0 mm 0.00 in0.0 mm 0.08 in2.0 mm
08:25 PM 42.3°F5.7°C 39.5°F4.2°C 90% 1.6 mph NNW2.6 kmh NNW 6.0 mph9.7 kmh 29.89 in1012.2 mb 0.00 in0.0 mm 0.00 in0.0 mm 0.08 in2.0 mm
08:30 PM 42.3°F5.7°C 39.5°F4.2°C 90% 7.9 mph NW12.7 kmh NW 7.9 mph12.7 kmh 29.89 in1012.2 mb 0.00 in0.0 mm 0.00 in0.0 mm 0.08 in2.0 mm
08:35 PM 42.3°F5.7°C 39.5°F4.2°C 90% 3.0 mph NW4.8 kmh NW 7.9 mph12.7 kmh 29.89 in1012.2 mb 0.00 in0.0 mm 0.00 in0.0 mm 0.08 in2.0 mm
08:40 PM 42.3°F5.7°C 39.5°F4.2°C 90% 2.5 mph NNW4.0 kmh NNW 6.0 mph9.7 kmh 29.89 in1012.2 mb 0.00 in0.0 mm 0.00 in0.0 mm 0.08 in2.0 mm
08:45 PM 42.3°F5.7°C 39.5°F4.2°C 90% 3.3 mph NNW5.3 kmh NNW 7.4 mph11.9 kmh 29.89 in1012.2 mb 0.00 in0.0 mm 0.00 in0.0 mm 0.08 in2.0 mm
08:50 PM 42.1°F5.6°C 39.4°F4.1°C 90% 3.0 mph NW4.8 kmh NW 7.4 mph11.9 kmh 29.89 in1012.2 mb 0.00 in0.0 mm 0.00 in0.0 mm 0.08 in2.0 mm
08:55 PM 42.1°F5.6°C 39.4°F4.1°C 90% 3.0 mph NW4.8 kmh NW 5.7 mph9.2 kmh 29.89 in1012.2 mb 0.00 in0.0 mm 0.00 in0.0 mm 0.08 in2.0 mm
09:00 PM 42.1°F5.6°C 39.4°F4.1°C 90% 4.1 mph NW6.6 kmh NW 4.9 mph7.9 kmh 29.92 in1013.2 mb 0.00 in0.0 mm 0.00 in0.0 mm 0.08 in2.0 mm
09:05 PM 41.9°F5.5°C 39.2°F4.0°C 90% 3.8 mph NW6.1 kmh NW 4.4 mph7.1 kmh 29.92 in1013.2 mb 0.00 in0.0 mm 0.00 in0.0 mm 0.08 in2.0 mm
09:10 PM 41.9°F5.5°C 39.2°F4.0°C 90% 3.8 mph N6.1 kmh N 4.9 mph7.9 kmh 29.92 in1013.2 mb 0.00 in0.0 mm 0.00 in0.0 mm 0.08 in2.0 mm
09:15 PM 41.7°F5.4°C 39.0°F3.9°C 90% 3.8 mph NNW6.1 kmh NNW 4.9 mph7.9 kmh 29.92 in1013.2 mb 0.00 in0.0 mm 0.00 in0.0 mm 0.08 in2.0 mm
09:20 PM 41.7°F5.4°C 39.0°F3.9°C 90% 1.9 mph N3.1 kmh N 3.8 mph6.1 kmh 29.92 in1013.2 mb 0.00 in0.0 mm 0.00 in0.0 mm 0.08 in2.0 mm
09:25 PM 41.5°F5.3°C 38.8°F3.8°C 90% 3.8 mph NW6.1 kmh NW 4.6 mph7.4 kmh 29.92 in1013.2 mb 0.00 in0.0 mm 0.00 in0.0 mm 0.08 in2.0 mm
09:30 PM 41.5°F5.3°C 38.8°F3.8°C 90% 2.5 mph NNW4.0 kmh NNW 4.6 mph7.4 kmh 29.92 in1013.2 mb 0.00 in0.0 mm 0.00 in0.0 mm 0.08 in2.0 mm
09:35 PM 41.5°F5.3°C 38.8°F3.8°C 90% 3.8 mph N6.1 kmh N 5.2 mph8.4 kmh 29.92 in1013.2 mb 0.00 in0.0 mm 0.00 in0.0 mm 0.08 in2.0 mm
09:40 PM 41.5°F5.3°C 38.8°F3.8°C 90% 4.9 mph NW7.9 kmh NW 6.0 mph9.7 kmh 29.92 in1013.2 mb 0.00 in0.0 mm 0.00 in0.0 mm 0.08 in2.0 mm
09:45 PM 41.4°F5.2°C 38.6°F3.7°C 90% 4.6 mph NW7.4 kmh NW 7.1 mph11.4 kmh 29.92 in1013.2 mb 0.00 in0.0 mm 0.00 in0.0 mm 0.08 in2.0 mm
09:50 PM 41.4°F5.2°C 38.4°F3.6°C 89% 4.4 mph NW7.1 kmh NW 7.1 mph11.4 kmh 29.92 in1013.2 mb 0.00 in0.0 mm 0.00 in0.0 mm 0.08 in2.0 mm
09:55 PM 41.4°F5.2°C 38.4°F3.6°C 89% 5.7 mph NW9.2 kmh NW 7.4 mph11.9 kmh 29.92 in1013.2 mb 0.00 in0.0 mm 0.00 in0.0 mm 0.08 in2.0 mm
10:00 PM 41.2°F5.1°C 38.2°F3.4°C 89% 3.5 mph NW5.6 kmh NW 7.4 mph11.9 kmh 29.92 in1013.2 mb 0.00 in0.0 mm 0.00 in0.0 mm 0.08 in2.0 mm
10:05 PM 41.2°F5.1°C 38.2°F3.4°C 89% 6.5 mph NNW10.5 kmh NNW 6.8 mph10.9 kmh 29.92 in1013.2 mb 0.00 in0.0 mm 0.00 in0.0 mm 0.08 in2.0 mm
10:10 PM 41.0°F5.0°C 38.0°F3.3°C 89% 4.9 mph NNW7.9 kmh NNW 6.8 mph10.9 kmh 29.92 in1013.2 mb 0.00 in0.0 mm 0.00 in0.0 mm 0.08 in2.0 mm
10:15 PM 41.0°F5.0°C 37.7°F3.2°C 88% 4.4 mph NW7.1 kmh NW 7.1 mph11.4 kmh 29.92 in1013.2 mb 0.00 in0.0 mm 0.00 in0.0 mm 0.08 in2.0 mm
10:20 PM 41.0°F5.0°C 37.7°F3.2°C 88% 4.4 mph NW7.1 kmh NW 7.1 mph11.4 kmh 29.92 in1013.2 mb 0.00 in0.0 mm 0.00 in0.0 mm 0.08 in2.0 mm
10:25 PM 40.8°F4.9°C 37.8°F3.2°C 89% 5.2 mph NW8.4 kmh NW 5.2 mph8.4 kmh 29.92 in1013.2 mb 0.00 in0.0 mm 0.00 in0.0 mm 0.08 in2.0 mm
10:30 PM 40.6°F4.8°C 37.7°F3.2°C 89% 5.7 mph NW9.2 kmh NW 5.7 mph9.2 kmh 29.92 in1013.2 mb 0.00 in0.0 mm 0.00 in0.0 mm 0.08 in2.0 mm
10:35 PM 40.5°F4.7°C 37.5°F3.1°C 89% 6.0 mph NW9.7 kmh NW 7.9 mph12.7 kmh 29.92 in1013.2 mb 0.00 in0.0 mm 0.00 in0.0 mm 0.08 in2.0 mm
10:40 PM 40.5°F4.7°C 37.5°F3.1°C 89% 2.5 mph NW4.0 kmh NW 7.9 mph12.7 kmh 29.92 in1013.2 mb 0.00 in0.0 mm 0.00 in0.0 mm 0.08 in2.0 mm
10:45 PM 40.5°F4.7°C 37.5°F3.1°C 89% 6.8 mph NW10.9 kmh NW 6.8 mph10.9 kmh 29.92 in1013.2 mb 0.00 in0.0 mm 0.00 in0.0 mm 0.08 in2.0 mm
10:50 PM 40.3°F4.6°C 37.3°F2.9°C 89% 4.1 mph NW6.6 kmh NW 6.8 mph10.9 kmh 29.92 in1013.2 mb 0.00 in0.0 mm 0.00 in0.0 mm 0.08 in2.0 mm
10:55 PM 40.3°F4.6°C 37.3°F2.9°C 89% 4.4 mph NW7.1 kmh NW 6.8 mph10.9 kmh 29.92 in1013.2 mb 0.00 in0.0 mm 0.00 in0.0 mm 0.08 in2.0 mm
11:00 PM 40.3°F4.6°C 37.0°F2.8°C 88% 5.7 mph NNW9.2 kmh NNW 7.1 mph11.4 kmh 29.92 in1013.2 mb 0.00 in0.0 mm 0.00 in0.0 mm 0.08 in2.0 mm
11:05 PM 40.3°F4.6°C 37.0°F2.8°C 88% 4.9 mph NW7.9 kmh NW 7.1 mph11.4 kmh 29.92 in1013.2 mb 0.00 in0.0 mm 0.00 in0.0 mm 0.08 in2.0 mm
11:10 PM 40.1°F4.5°C 36.8°F2.7°C 88% 5.2 mph NNW8.4 kmh NNW 7.6 mph12.2 kmh 29.92 in1013.2 mb 0.00 in0.0 mm 0.00 in0.0 mm 0.08 in2.0 mm
11:15 PM 40.1°F4.5°C 36.8°F2.7°C 88% 6.8 mph NW10.9 kmh NW 7.6 mph12.2 kmh 29.92 in1013.2 mb 0.00 in0.0 mm 0.00 in0.0 mm 0.08 in2.0 mm
11:20 PM 40.1°F4.5°C 36.8°F2.7°C 88% 4.1 mph NW6.6 kmh NW 6.8 mph10.9 kmh 29.92 in1013.2 mb 0.00 in0.0 mm 0.00 in0.0 mm 0.08 in2.0 mm
11:25 PM 39.9°F4.4°C 36.7°F2.6°C 88% 4.1 mph NW6.6 kmh NW 9.0 mph14.5 kmh 29.92 in1013.2 mb 0.00 in0.0 mm 0.00 in0.0 mm 0.08 in2.0 mm
11:30 PM 39.7°F4.3°C 36.5°F2.5°C 88% 4.6 mph NW7.4 kmh NW 9.0 mph14.5 kmh 29.92 in1013.2 mb 0.00 in0.0 mm 0.00 in0.0 mm 0.08 in2.0 mm
11:35 PM 39.7°F4.3°C 36.5°F2.5°C 88% 1.1 mph NW1.8 kmh NW 5.2 mph8.4 kmh 29.92 in1013.2 mb 0.00 in0.0 mm 0.00 in0.0 mm 0.08 in2.0 mm
11:40 PM 39.6°F4.2°C 36.6°F2.6°C 89% Calm Calm 5.2 mph8.4 kmh 29.92 in1013.2 mb 0.00 in0.0 mm 0.00 in0.0 mm 0.08 in2.0 mm
11:45 PM 39.6°F4.2°C 36.6°F2.6°C 89% 3.8 mph NW6.1 kmh NW 4.9 mph7.9 kmh 29.92 in1013.2 mb 0.00 in0.0 mm 0.00 in0.0 mm 0.08 in2.0 mm
11:50 PM 39.6°F4.2°C 36.3°F2.4°C 88% 4.9 mph NW7.9 kmh NW 6.0 mph9.7 kmh 29.92 in1013.2 mb 0.00 in0.0 mm 0.00 in0.0 mm 0.08 in2.0 mm
11:55 PM 39.6°F4.2°C 36.3°F2.4°C 88% 4.4 mph NW7.1 kmh NW 6.0 mph9.7 kmh 29.92 in1013.2 mb 0.00 in0.0 mm 0.00 in0.0 mm 0.08 in2.0 mm